Time;durP1;ratioP1;P1;durP2;ratioP2;P2;SDS_P1;SDS_P2;PMS_P1;PMS_P2;Temp;Humidity;BMP_temperature;BMP_pressure;BME280_temperature;BME280_humidity;BME280_pressure;Samples;Min_cycle;Max_cycle;Signal;HPM_P1;HPM_P2
2023/11/03 00:00:15;;;;;;;4.80;0.60;;;10.10;99.90;;;;;;7290939;19;20191;-88
2023/11/03 00:02:40;;;;;;;1.60;0.53;;;10.10;99.90;;;;;;7290667;19;20282;-88
2023/11/03 00:05:11;;;;;;;3.20;0.50;;;10.10;99.90;;;;;;7287899;19;20199;-87
2023/11/03 00:07:38;;;;;;;3.13;0.67;;;10.00;99.90;;;;;;7292426;19;20216;-87
2023/11/03 00:10:05;;;;;;;3.30;0.53;;;10.00;99.90;;;;;;7288616;19;20201;-89
2023/11/03 00:12:36;;;;;;;2.93;0.53;;;10.00;99.90;;;;;;7299648;19;20190;-89
2023/11/03 00:15:02;;;;;;;4.73;0.80;;;10.00;99.90;;;;;;7298639;19;20188;-89
2023/11/03 00:17:28;;;;;;;2.83;0.50;;;10.00;99.90;;;;;;7311419;19;20186;-88
2023/11/03 00:19:54;;;;;;;4.47;0.60;;;10.00;99.90;;;;;;7291685;19;20543;-87
2023/11/03 00:22:20;;;;;;;5.87;0.77;;;9.90;99.90;;;;;;7290535;19;20195;-88
2023/11/03 00:24:45;;;;;;;1.83;0.57;;;9.90;99.90;;;;;;7289879;19;20686;-88
2023/11/03 00:27:11;;;;;;;4.87;0.70;;;9.70;99.90;;;;;;7290578;19;20195;-88
2023/11/03 00:29:37;;;;;;;3.53;0.70;;;9.60;99.90;;;;;;7289868;19;20664;-89
2023/11/03 00:32:03;;;;;;;3.60;0.60;;;9.60;99.90;;;;;;7290376;19;20207;-88
2023/11/03 00:34:29;;;;;;;5.77;0.50;;;9.70;99.90;;;;;;7314361;19;20203;-88
2023/11/03 00:36:55;;;;;;;2.50;0.50;;;9.70;99.90;;;;;;7290415;19;20188;-87
2023/11/03 00:39:21;;;;;;;5.53;0.57;;;9.70;99.90;;;;;;7290416;19;20183;-87
2023/11/03 00:41:48;;;;;;;4.30;0.60;;;9.60;99.90;;;;;;7290152;19;20188;-88
2023/11/03 00:44:15;;;;;;;3.83;0.67;;;9.60;99.90;;;;;;7289722;19;20194;-88
2023/11/03 00:46:42;;;;;;;4.73;1.27;;;9.60;99.90;;;;;;7291979;19;20211;-89
2023/11/03 00:49:09;;;;;;;10.43;0.90;;;9.60;99.90;;;;;;7289718;19;20281;-88
2023/11/03 00:51:35;;;;;;;9.27;1.00;;;9.60;99.90;;;;;;7290809;19;20209;-88
2023/11/03 00:54:05;;;;;;;6.43;0.87;;;9.60;99.90;;;;;;7304170;19;20214;-88
2023/11/03 00:56:32;;;;;;;4.30;1.10;;;9.70;99.90;;;;;;7305465;19;20206;-89
2023/11/03 00:58:58;;;;;;;4.53;0.70;;;9.70;99.90;;;;;;7312734;19;20189;-89
2023/11/03 01:01:24;;;;;;;7.43;1.03;;;9.80;99.90;;;;;;7289826;19;20189;-87
2023/11/03 01:03:52;;;;;;;3.23;0.60;;;10.00;99.90;;;;;;7292078;19;20199;-88
2023/11/03 01:06:18;;;;;;;5.40;0.87;;;10.00;99.90;;;;;;7288311;19;20260;-88
2023/11/03 01:08:44;;;;;;;5.33;0.80;;;10.00;99.90;;;;;;7289212;19;20217;-89
2023/11/03 01:11:10;;;;;;;4.43;0.70;;;9.90;99.90;;;;;;7288405;19;20199;-89
2023/11/03 01:13:45;;;;;;;6.13;0.83;;;9.90;99.90;;;;;;7289952;19;20187;-89
2023/11/03 01:16:13;;;;;;;6.23;1.00;;;9.80;99.90;;;;;;7289624;19;20185;-89
2023/11/03 01:18:39;;;;;;;4.77;0.90;;;9.80;99.90;;;;;;7288298;19;20682;-89
2023/11/03 01:21:12;;;;;;;7.30;0.80;;;9.80;99.90;;;;;;7290029;19;20189;-91
2023/11/03 01:23:49;;;;;;;7.33;0.80;;;9.80;99.90;;;;;;7288305;19;20936;-89
2023/11/03 01:26:16;;;;;;;6.13;1.10;;;9.80;99.90;;;;;;7286343;19;20193;-90
2023/11/03 01:28:42;;;;;;;6.10;0.90;;;9.80;99.90;;;;;;7286187;19;20663;-89
2023/11/03 01:31:10;;;;;;;7.10;0.93;;;9.80;99.90;;;;;;7288595;19;20224;-89
2023/11/03 01:33:37;;;;;;;7.00;0.80;;;9.80;99.90;;;;;;7288845;19;20265;-89
2023/11/03 01:36:04;;;;;;;6.53;0.90;;;9.90;99.90;;;;;;7291852;19;20216;-89
2023/11/03 01:38:35;;;;;;;9.43;1.00;;;10.00;99.90;;;;;;7311365;19;20195;-90
2023/11/03 01:41:02;;;;;;;9.30;1.10;;;10.00;99.90;;;;;;7276865;19;20199;-89
2023/11/03 01:43:29;;;;;;;7.33;0.87;;;10.10;99.90;;;;;;7309534;19;20184;-89
2023/11/03 01:45:56;;;;;;;7.37;1.00;;;10.10;99.90;;;;;;7289494;19;20305;-89
2023/11/03 01:48:24;;;;;;;4.07;0.90;;;10.20;99.90;;;;;;7289921;19;20345;-89
2023/11/03 01:50:50;;;;;;;7.83;1.30;;;10.20;99.90;;;;;;7288914;19;20180;-89
2023/11/03 01:53:16;;;;;;;5.73;0.90;;;10.10;99.90;;;;;;7288278;19;20200;-90
2023/11/03 01:55:44;;;;;;;8.00;1.10;;;10.10;99.90;;;;;;7286280;19;20247;-90
2023/11/03 01:58:11;;;;;;;9.10;1.17;;;10.10;99.90;;;;;;7287286;19;20563;-89
2023/11/03 02:00:37;;;;;;;6.80;1.00;;;10.10;99.90;;;;;;7286492;19;20198;-90
2023/11/03 02:03:03;;;;;;;8.73;1.00;;;10.10;99.90;;;;;;7289235;19;20188;-88
2023/11/03 02:05:29;;;;;;;10.47;1.63;;;10.00;99.90;;;;;;7308529;19;20187;-89
2023/11/03 02:07:55;;;;;;;7.47;1.17;;;9.90;99.90;;;;;;7289979;19;20711;-90
2023/11/03 02:10:21;;;;;;;10.73;1.27;;;10.00;99.90;;;;;;7287866;19;20197;-89
2023/11/03 02:12:46;;;;;;;9.33;1.40;;;10.00;99.90;;;;;;7287178;19;20189;-89
2023/11/03 02:15:13;;;;;;;8.83;1.40;;;10.10;99.90;;;;;;7286282;19;20183;-89
2023/11/03 02:17:40;;;;;;;10.43;1.47;;;10.20;99.90;;;;;;7286584;19;20223;-88
2023/11/03 02:20:07;;;;;;;8.70;1.33;;;10.20;99.90;;;;;;7288317;19;20285;-89
2023/11/03 02:22:34;;;;;;;15.27;1.60;;;10.00;99.90;;;;;;7288310;19;20210;-89
2023/11/03 02:25:00;;;;;;;9.67;1.30;;;10.00;99.90;;;;;;7309647;19;20182;-89
2023/11/03 02:27:25;;;;;;;7.80;1.57;;;9.90;99.90;;;;;;7289840;19;20223;-89
2023/11/03 02:29:52;;;;;;;7.67;1.47;;;10.00;99.90;;;;;;7287390;19;20998;-90
2023/11/03 02:32:18;;;;;;;10.27;1.17;;;10.00;99.90;;;;;;7286500;19;20192;-89
2023/11/03 02:34:44;;;;;;;8.13;1.20;;;9.90;99.90;;;;;;7288059;19;20193;-87
2023/11/03 02:37:09;;;;;;;10.23;1.37;;;9.90;99.90;;;;;;7285785;19;20190;-88
2023/11/03 02:39:38;;;;;;;7.60;1.30;;;9.80;99.90;;;;;;7287644;19;20190;-87
2023/11/03 02:42:04;;;;;;;9.47;1.20;;;9.80;99.90;;;;;;7286007;19;20219;-88
2023/11/03 02:44:30;;;;;;;6.80;1.10;;;9.80;99.90;;;;;;7307809;19;20193;-88
2023/11/03 02:46:56;;;;;;;11.10;1.40;;;9.80;99.90;;;;;;7288626;19;20181;-88
2023/11/03 02:49:21;;;;;;;7.93;1.40;;;9.90;99.90;;;;;;7287547;19;20184;-87
2023/11/03 02:51:47;;;;;;;11.73;1.53;;;9.90;99.90;;;;;;7286211;19;20186;-87
2023/11/03 02:54:14;;;;;;;5.23;1.27;;;9.90;99.90;;;;;;7285759;19;20538;-87
2023/11/03 02:56:40;;;;;;;9.93;1.27;;;10.00;99.90;;;;;;7286514;19;20555;-88
2023/11/03 02:59:06;;;;;;;9.80;1.47;;;10.00;99.90;;;;;;7285153;19;20223;-88
2023/11/03 03:01:36;;;;;;;12.17;1.40;;;10.10;99.90;;;;;;7288774;19;20194;-88
2023/11/03 03:04:01;;;;;;;10.37;1.70;;;10.20;99.90;;;;;;7293657;19;20202;-89
2023/11/03 03:06:27;;;;;;;10.60;1.30;;;10.20;99.90;;;;;;7306990;19;20182;-89
2023/11/03 03:08:53;;;;;;;7.57;1.20;;;10.20;99.90;;;;;;7283414;19;20344;-89
2023/11/03 03:11:19;;;;;;;10.17;1.50;;;10.20;99.90;;;;;;7285899;19;20260;-88
2023/11/03 03:13:45;;;;;;;11.20;1.60;;;10.30;99.90;;;;;;7285358;19;20223;-89
2023/11/03 03:16:12;;;;;;;11.40;1.20;;;10.20;99.90;;;;;;7281257;19;20190;-89
2023/11/03 03:18:37;;;;;;;10.87;1.33;;;10.10;99.90;;;;;;7278323;19;20701;-88
2023/11/03 03:21:03;;;;;;;8.93;1.80;;;10.10;99.90;;;;;;7285862;19;20194;-89
2023/11/03 03:23:29;;;;;;;10.27;1.57;;;10.00;99.90;;;;;;7308842;19;20193;-88
2023/11/03 03:25:55;;;;;;;11.17;1.50;;;10.00;99.90;;;;;;7287210;19;20540;-88
2023/11/03 03:28:21;;;;;;;10.90;1.47;;;10.00;99.90;;;;;;7284897;19;20568;-88
2023/11/03 03:30:46;;;;;;;10.07;1.40;;;10.00;99.90;;;;;;7284074;19;20208;-88
2023/11/03 03:33:12;;;;;;;8.07;1.60;;;9.90;99.90;;;;;;7285674;19;20237;-88
2023/11/03 03:35:38;;;;;;;9.07;1.30;;;9.90;99.90;;;;;;7285941;19;20199;-88
2023/11/03 03:38:04;;;;;;;9.43;1.23;;;9.90;99.90;;;;;;7285955;19;20679;-89
2023/11/03 03:40:30;;;;;;;10.33;1.43;;;9.90;99.90;;;;;;7306885;19;20252;-88
2023/11/03 03:42:56;;;;;;;10.67;1.30;;;9.80;99.90;;;;;;7285493;19;20190;-88
2023/11/03 03:45:22;;;;;;;9.33;1.67;;;9.80;99.90;;;;;;7286405;19;20194;-88
2023/11/03 03:47:47;;;;;;;9.67;1.20;;;9.80;99.90;;;;;;7284103;19;20190;-88
2023/11/03 03:50:13;;;;;;;9.60;1.20;;;9.80;99.90;;;;;;7285260;19;20946;-89
2023/11/03 03:52:39;;;;;;;8.43;1.37;;;9.90;99.90;;;;;;7286254;19;20194;-89
2023/11/03 03:55:05;;;;;;;7.83;1.10;;;9.90;99.90;;;;;;7285702;19;20209;-88
2023/11/03 03:57:31;;;;;;;7.77;1.10;;;10.00;99.90;;;;;;7305817;19;20174;-89
2023/11/03 03:59:57;;;;;;;8.43;1.10;;;10.00;99.90;;;;;;7284547;19;20206;-89
2023/11/03 04:02:23;;;;;;;7.93;1.20;;;10.00;99.90;;;;;;7284776;19;20190;-89
2023/11/03 04:04:49;;;;;;;8.83;1.20;;;9.90;99.90;;;;;;7284394;19;20198;-88
2023/11/03 04:07:15;;;;;;;7.03;1.10;;;9.90;99.90;;;;;;7284635;19;20197;-88
2023/11/03 04:09:41;;;;;;;8.03;1.10;;;9.80;99.90;;;;;;7283705;19;21125;-89
2023/11/03 04:12:07;;;;;;;7.57;0.97;;;9.80;99.90;;;;;;7281710;19;20198;-88
2023/11/03 04:14:33;;;;;;;9.87;1.33;;;9.70;99.90;;;;;;7285919;19;20189;-88
2023/11/03 04:16:59;;;;;;;4.43;0.90;;;9.70;99.90;;;;;;7305436;19;20202;-88
2023/11/03 04:19:25;;;;;;;11.57;1.53;;;9.70;99.90;;;;;;7283589;19;20185;-89
2023/11/03 04:21:51;;;;;;;4.73;1.17;;;9.70;99.90;;;;;;7284236;19;20580;-88
2023/11/03 04:24:16;;;;;;;9.47;1.30;;;9.70;99.90;;;;;;7286616;19;20182;-88
2023/11/03 04:26:42;;;;;;;5.80;0.97;;;9.70;99.90;;;;;;7284447;19;20221;-88
2023/11/03 04:29:08;;;;;;;7.03;1.10;;;9.70;99.90;;;;;;7283564;19;20201;-88
2023/11/03 04:31:34;;;;;;;9.20;1.30;;;9.70;99.90;;;;;;7281979;19;20178;-88
2023/11/03 04:34:00;;;;;;;10.63;1.43;;;9.80;99.90;;;;;;7306646;19;20210;-88
2023/11/03 04:36:26;;;;;;;5.50;1.10;;;9.80;99.90;;;;;;7284662;19;20280;-88
2023/11/03 04:38:52;;;;;;;11.50;1.37;;;9.70;99.90;;;;;;7284334;19;20198;-88
2023/11/03 04:41:18;;;;;;;5.40;1.20;;;9.80;99.90;;;;;;7283637;19;20262;-88
2023/11/03 04:43:44;;;;;;;8.87;1.73;;;9.90;99.90;;;;;;7285455;19;20192;-88
2023/11/03 04:46:10;;;;;;;6.70;1.00;;;10.00;99.90;;;;;;7287511;19;20187;-88
2023/11/03 04:48:39;;;;;;;7.53;1.30;;;10.00;99.90;;;;;;7290779;19;20543;-88
2023/11/03 04:51:08;;;;;;;7.37;1.20;;;9.90;99.90;;;;;;7289716;19;20290;-88
2023/11/03 04:53:34;;;;;;;8.47;1.63;;;9.90;99.90;;;;;;7290779;19;20186;-88
2023/11/03 04:55:59;;;;;;;6.67;1.27;;;9.90;99.90;;;;;;7310571;19;20273;-88
2023/11/03 04:58:25;;;;;;;5.70;1.00;;;9.90;99.90;;;;;;7287840;19;20190;-88
2023/11/03 05:00:51;;;;;;;10.37;1.30;;;10.00;99.90;;;;;;7289867;19;20198;-88
2023/11/03 05:03:19;;;;;;;10.77;1.53;;;9.80;99.90;;;;;;7289746;19;20184;-88
2023/11/03 05:05:45;;;;;;;8.63;1.33;;;9.80;99.90;;;;;;7288032;19;20639;-88
2023/11/03 05:08:11;;;;;;;9.83;1.50;;;9.80;99.90;;;;;;7289392;19;20187;-88
2023/11/03 05:10:38;;;;;;;11.70;1.70;;;9.90;99.90;;;;;;7287768;19;20211;-88
2023/11/03 05:13:04;;;;;;;8.57;1.40;;;9.80;99.90;;;;;;7293254;19;20187;-89
2023/11/03 05:15:30;;;;;;;10.60;1.30;;;10.00;99.90;;;;;;7315953;19;20195;-88
2023/11/03 05:17:58;;;;;;;9.80;1.40;;;10.00;99.90;;;;;;7290400;19;20190;-87
2023/11/03 05:20:24;;;;;;;9.53;1.50;;;9.90;99.90;;;;;;7290777;19;20193;-88
2023/11/03 05:22:50;;;;;;;10.07;1.47;;;9.80;99.90;;;;;;7291950;19;20192;-88
2023/11/03 05:25:16;;;;;;;10.10;1.50;;;9.70;99.90;;;;;;7290564;19;20546;-87
2023/11/03 05:27:42;;;;;;;16.00;2.07;;;9.60;99.90;;;;;;7291881;19;20182;-87
2023/11/03 05:30:08;;;;;;;10.93;1.73;;;9.60;99.90;;;;;;7293176;19;20188;-88
2023/11/03 05:32:35;;;;;;;8.67;1.80;;;9.60;99.90;;;;;;7289757;19;20190;-89
2023/11/03 05:35:01;;;;;;;10.13;1.87;;;9.70;99.90;;;;;;7315221;19;20257;-87
2023/11/03 05:37:27;;;;;;;8.37;1.60;;;9.70;99.90;;;;;;7290910;19;20190;-88
2023/11/03 05:39:53;;;;;;;9.80;1.63;;;9.70;99.90;;;;;;7289405;19;20186;-88
2023/11/03 05:42:19;;;;;;;10.67;1.33;;;9.70;99.90;;;;;;7289824;19;21004;-88
2023/11/03 05:44:44;;;;;;;7.87;1.60;;;9.70;99.90;;;;;;7287076;19;20208;-87
2023/11/03 05:47:11;;;;;;;12.57;1.60;;;9.60;99.90;;;;;;7289390;19;20755;-88
2023/11/03 05:49:36;;;;;;;9.13;1.60;;;9.70;99.90;;;;;;7289809;19;20196;-87
2023/11/03 05:52:02;;;;;;;9.40;1.70;;;9.60;99.90;;;;;;7303056;19;20192;-88
2023/11/03 05:54:28;;;;;;;11.13;1.63;;;9.60;99.90;;;;;;7303803;19;20670;-85
2023/11/03 05:56:54;;;;;;;10.27;1.90;;;9.40;99.90;;;;;;7287051;19;20187;-88
2023/11/03 05:59:19;;;;;;;15.77;2.40;;;9.40;99.90;;;;;;7286800;19;20186;-87
2023/11/03 06:01:45;;;;;;;11.07;1.90;;;9.40;99.90;;;;;;7289904;19;20194;-88
2023/11/03 06:04:11;;;;;;;12.50;2.20;;;9.40;99.90;;;;;;7287941;19;20215;-88
2023/11/03 06:06:37;;;;;;;10.67;1.97;;;9.40;99.90;;;;;;7287149;19;20255;-88
2023/11/03 06:09:02;;;;;;;18.17;2.33;;;9.40;99.90;;;;;;7309713;19;20200;-91
2023/11/03 06:11:28;;;;;;;12.30;2.10;;;9.30;99.90;;;;;;7303614;19;20190;-89
2023/11/03 06:13:54;;;;;;;11.57;1.93;;;9.30;99.90;;;;;;7286427;19;20197;-88
2023/11/03 06:16:21;;;;;;;14.27;1.70;;;9.20;99.90;;;;;;7281523;19;20182;-88
2023/11/03 06:18:47;;;;;;;16.33;2.07;;;9.20;99.90;;;;;;7287966;19;20184;-88
2023/11/03 06:21:12;;;;;;;11.27;1.80;;;9.10;99.90;;;;;;7288145;19;20204;-88
2023/11/03 06:23:38;;;;;;;15.87;2.50;;;9.10;99.90;;;;;;7288520;19;20186;-89
2023/11/03 06:26:05;;;;;;;8.40;1.80;;;9.20;99.90;;;;;;7293330;19;20192;-89
2023/11/03 06:28:30;;;;;;;11.60;1.70;;;9.20;99.90;;;;;;7308030;19;20187;-87
2023/11/03 06:30:56;;;;;;;10.33;1.93;;;9.20;99.90;;;;;;7287966;19;21071;-89
2023/11/03 06:33:22;;;;;;;12.83;1.70;;;9.30;99.90;;;;;;7287694;19;20281;-92
2023/11/03 06:35:49;;;;;;;11.87;1.80;;;9.20;99.90;;;;;;7286851;19;20210;-89
2023/11/03 06:38:14;;;;;;;11.70;2.13;;;9.30;99.90;;;;;;7286810;19;20193;-90
2023/11/03 06:40:40;;;;;;;9.03;1.70;;;9.30;99.90;;;;;;7288225;19;20204;-88
2023/11/03 06:43:06;;;;;;;10.37;1.83;;;9.20;99.90;;;;;;7288332;19;20227;-90
2023/11/03 06:45:32;;;;;;;11.07;1.90;;;9.20;99.90;;;;;;7309511;19;20214;-90
2023/11/03 06:47:59;;;;;;;12.70;1.97;;;9.20;99.90;;;;;;7286882;19;20215;-89
2023/11/03 06:50:25;;;;;;;14.73;2.40;;;9.10;99.90;;;;;;7286836;19;20221;-89
2023/11/03 06:52:51;;;;;;;13.97;2.10;;;9.10;99.90;;;;;;7287175;19;20189;-89
2023/11/03 06:55:17;;;;;;;9.17;1.90;;;9.10;99.90;;;;;;7287192;19;20210;-89
2023/11/03 06:57:43;;;;;;;14.23;2.40;;;9.10;99.90;;;;;;7286978;19;20252;-89
2023/11/03 07:00:12;;;;;;;15.60;2.20;;;9.10;99.90;;;;;;7285061;19;20220;-89
2023/11/03 07:02:39;;;;;;;11.67;1.90;;;9.10;99.90;;;;;;7287465;19;20225;-89
2023/11/03 07:05:05;;;;;;;13.67;2.10;;;9.10;99.90;;;;;;7291860;19;20221;-90
2023/11/03 07:07:32;;;;;;;10.33;1.83;;;9.10;99.90;;;;;;7308376;19;20185;-89
2023/11/03 07:09:59;;;;;;;9.93;1.90;;;9.20;99.90;;;;;;7289391;19;20641;-90
2023/11/03 07:12:26;;;;;;;12.47;1.80;;;9.30;99.90;;;;;;7288113;19;20209;-89
2023/11/03 07:14:52;;;;;;;7.27;2.20;;;9.30;99.90;;;;;;7288839;19;20192;-88
2023/11/03 07:17:18;;;;;;;11.93;1.93;;;9.30;99.90;;;;;;7285617;19;20186;-89
2023/11/03 07:19:44;;;;;;;12.13;1.80;;;9.20;99.90;;;;;;7283779;19;20196;-90
2023/11/03 07:22:10;;;;;;;15.83;2.17;;;9.20;99.90;;;;;;7288186;19;20530;-89
2023/11/03 07:24:36;;;;;;;13.53;2.40;;;9.20;99.90;;;;;;7286865;19;20253;-89
2023/11/03 07:27:04;;;;;;;13.17;1.97;;;9.30;99.90;;;;;;7308875;19;20642;-90
2023/11/03 07:29:32;;;;;;;9.63;2.17;;;9.30;99.90;;;;;;7285031;19;20197;-90
2023/11/03 07:31:58;;;;;;;14.17;1.57;;;9.40;99.90;;;;;;7284569;19;20191;-89
2023/11/03 07:34:24;;;;;;;11.63;1.60;;;9.50;99.90;;;;;;7286328;19;20191;-90
2023/11/03 07:36:49;;;;;;;10.40;2.10;;;9.50;99.90;;;;;;7283916;19;20230;-90
2023/11/03 07:39:15;;;;;;;10.87;2.20;;;9.60;99.90;;;;;;7284252;19;20666;-90
2023/11/03 07:41:44;;;;;;;11.40;1.97;;;9.70;99.90;;;;;;7285988;19;20181;-89
2023/11/03 07:44:12;;;;;;;14.23;2.07;;;9.70;99.90;;;;;;7283062;19;20258;-90
2023/11/03 07:46:38;;;;;;;11.87;1.97;;;9.80;99.90;;;;;;7282375;19;20689;-89
2023/11/03 07:49:04;;;;;;;16.40;2.27;;;9.80;99.90;;;;;;7301009;19;20199;-90
2023/11/03 07:51:30;;;;;;;10.67;2.13;;;9.90;99.90;;;;;;7296471;19;20639;-89
2023/11/03 07:53:57;;;;;;;12.23;2.10;;;10.10;99.90;;;;;;7287009;19;20212;-90
2023/11/03 07:56:22;;;;;;;13.30;2.03;;;10.20;99.90;;;;;;7286232;19;20255;-90
2023/11/03 07:58:49;;;;;;;15.00;1.93;;;10.10;99.90;;;;;;7286457;19;20221;-89
2023/11/03 08:01:19;;;;;;;10.13;2.30;;;10.30;99.90;;;;;;7285634;19;20194;-88
2023/11/03 08:03:47;;;;;;;14.70;2.10;;;10.40;99.90;;;;;;7284261;19;20203;-90
2023/11/03 08:06:12;;;;;;;14.47;2.03;;;10.50;99.90;;;;;;7281567;19;20202;-89
2023/11/03 08:08:38;;;;;;;8.77;1.63;;;10.50;99.90;;;;;;7282929;19;20195;-90
2023/11/03 08:11:04;;;;;;;14.27;2.10;;;10.40;99.90;;;;;;7303589;19;20192;-90
2023/11/03 08:13:30;;;;;;;10.03;1.77;;;10.50;99.90;;;;;;7300660;19;20206;-89
2023/11/03 08:15:56;;;;;;;15.97;1.90;;;10.60;99.90;;;;;;7281065;19;20666;-88
2023/11/03 08:18:23;;;;;;;13.20;1.70;;;10.70;99.90;;;;;;7285337;19;20220;-88
2023/11/03 08:20:50;;;;;;;16.10;2.27;;;10.90;99.90;;;;;;7285837;19;20695;-88
2023/11/03 08:23:16;;;;;;;14.07;2.47;;;11.00;99.90;;;;;;7283300;19;20193;-88
2023/11/03 08:25:43;;;;;;;15.23;2.83;;;11.20;99.90;;;;;;7282606;19;20200;-88
2023/11/03 08:28:12;;;;;;;16.07;2.10;;;11.20;99.90;;;;;;7283387;19;20196;-88
2023/11/03 08:30:41;;;;;;;13.33;1.80;;;11.40;99.90;;;;;;7281816;19;20203;-88
2023/11/03 08:33:08;;;;;;;14.47;1.80;;;11.30;99.90;;;;;;7286389;19;20203;-88
2023/11/03 08:35:35;;;;;;;9.77;1.60;;;11.40;99.90;;;;;;7305266;19;20193;-88
2023/11/03 08:38:02;;;;;;;13.30;2.07;;;11.30;99.90;;;;;;7282757;19;20232;-88
2023/11/03 08:40:28;;;;;;;12.57;1.80;;;11.50;99.90;;;;;;7285512;19;20192;-87
2023/11/03 08:42:54;;;;;;;10.73;1.47;;;11.60;99.90;;;;;;7279200;19;22732;-88
2023/11/03 08:45:19;;;;;;;15.00;2.10;;;11.70;99.90;;;;;;7286993;19;20292;-88
2023/11/03 08:47:46;;;;;;;16.40;1.73;;;11.60;99.90;;;;;;7285871;19;20192;-88
2023/11/03 08:50:14;;;;;;;13.20;1.97;;;11.50;99.90;;;;;;7284759;19;20200;-88
2023/11/03 08:52:40;;;;;;;14.63;2.10;;;11.40;99.90;;;;;;7285479;19;20195;-88
2023/11/03 08:55:08;;;;;;;12.17;1.67;;;11.40;99.90;;;;;;7284924;19;20184;-88
2023/11/03 08:57:38;;;;;;;14.77;2.10;;;11.30;99.90;;;;;;7305554;19;20309;-88
2023/11/03 09:00:09;;;;;;;18.77;2.47;;;11.50;99.90;;;;;;7286571;19;20725;-87
2023/11/03 09:02:38;;;;;;;7.93;1.53;;;11.50;99.90;;;;;;7276217;19;20191;-89
2023/11/03 09:05:07;;;;;;;15.97;2.80;;;11.50;99.90;;;;;;7306359;19;20218;-88
2023/11/03 09:07:35;;;;;;;13.27;1.80;;;11.50;99.90;;;;;;7286489;19;20199;-89
2023/11/03 09:10:03;;;;;;;10.20;1.73;;;11.50;99.90;;;;;;7282375;19;20195;-89
2023/11/03 09:12:30;;;;;;;11.43;1.87;;;11.60;99.90;;;;;;7281707;19;20196;-88
2023/11/03 09:14:56;;;;;;;10.53;1.97;;;11.70;99.90;;;;;;7283593;19;20178;-88
2023/11/03 09:17:22;;;;;;;11.97;2.17;;;11.80;99.90;;;;;;7284623;19;20196;-88
2023/11/03 09:19:48;;;;;;;13.97;2.10;;;11.90;99.90;;;;;;7284802;19;20269;-88
2023/11/03 09:22:14;;;;;;;13.50;1.90;;;12.00;99.90;;;;;;7283737;19;20201;-89
2023/11/03 09:24:40;;;;;;;14.47;1.70;;;12.00;99.90;;;;;;7285214;19;20662;-89
2023/11/03 09:27:06;;;;;;;13.90;2.37;;;12.10;99.90;;;;;;7286722;19;20216;-90
2023/11/03 09:29:32;;;;;;;12.47;1.63;;;12.10;99.90;;;;;;7304075;19;20309;-88
2023/11/03 09:31:57;;;;;;;13.87;1.90;;;12.10;99.90;;;;;;7284084;19;20184;-90
2023/11/03 09:34:23;;;;;;;11.60;1.97;;;12.20;99.90;;;;;;7284639;19;20519;-89
2023/11/03 09:36:50;;;;;;;11.37;1.90;;;12.30;99.90;;;;;;7284888;19;20187;-89
2023/11/03 09:39:15;;;;;;;12.73;2.00;;;12.30;99.90;;;;;;7283988;19;20715;-89
2023/11/03 09:41:55;;;;;;;11.97;1.70;;;12.40;99.90;;;;;;7283421;19;20378;-89
2023/11/03 09:44:21;;;;;;;15.77;2.27;;;12.40;99.90;;;;;;7284941;19;20208;-90
2023/11/03 09:46:53;;;;;;;11.97;1.97;;;12.40;99.90;;;;;;7283978;19;20195;-90
2023/11/03 09:49:19;;;;;;;11.63;1.60;;;12.40;99.90;;;;;;7286020;19;20192;-89
2023/11/03 09:51:48;;;;;;;16.33;1.97;;;12.50;99.90;;;;;;7281572;19;20229;-90
2023/11/03 09:54:15;;;;;;;15.37;1.80;;;12.80;99.90;;;;;;7285160;19;20213;-90
2023/11/03 09:56:45;;;;;;;12.30;1.63;;;13.00;99.90;;;;;;7284312;19;20181;-90
2023/11/03 09:59:13;;;;;;;10.57;1.60;;;13.10;99.90;;;;;;7283326;19;20213;-90
2023/11/03 10:01:41;;;;;;;12.57;1.90;;;13.20;99.90;;;;;;7285253;19;20645;-90
2023/11/03 10:04:10;;;;;;;13.73;1.67;;;13.20;99.90;;;;;;7283664;19;20223;-90
2023/11/03 10:06:39;;;;;;;13.70;2.07;;;13.30;99.90;;;;;;7292123;19;20190;-90
2023/11/03 10:09:12;;;;;;;11.40;2.00;;;13.40;99.90;;;;;;7303985;19;20221;-90
2023/11/03 10:11:40;;;;;;;11.10;1.57;;;13.60;99.90;;;;;;7282376;19;20206;-90
2023/11/03 10:14:06;;;;;;;11.07;1.77;;;13.90;99.90;;;;;;7289471;19;20189;-90
2023/11/03 10:16:32;;;;;;;15.83;2.03;;;14.10;99.90;;;;;;7304194;19;20609;-90
2023/11/03 10:18:57;;;;;;;24.97;5.83;;;14.20;99.90;;;;;;7281711;19;20191;-89
2023/11/03 10:21:23;;;;;;;17.27;2.33;;;14.30;99.90;;;;;;7282381;19;20185;-90
2023/11/03 10:23:49;;;;;;;10.83;1.60;;;14.80;99.90;;;;;;7283312;19;20192;-90
2023/11/03 10:26:15;;;;;;;9.70;1.63;;;15.20;99.90;;;;;;7283025;19;20189;-89
2023/11/03 10:28:45;;;;;;;9.00;1.80;;;15.60;99.90;;;;;;7282598;19;20189;-90
2023/11/03 10:31:11;;;;;;;11.77;1.67;;;16.10;99.90;;;;;;7280932;19;20190;-90
2023/11/03 10:33:57;;;;;;;9.43;1.70;;;16.90;99.90;;;;;;7284431;19;20185;-89
2023/11/03 10:36:24;;;;;;;13.00;1.60;;;16.80;99.90;;;;;;7283919;19;20194;-90
2023/11/03 10:38:50;;;;;;;13.13;1.73;;;15.80;99.90;;;;;;7283496;19;20689;-90
2023/11/03 10:41:18;;;;;;;10.83;1.73;;;15.40;99.90;;;;;;7282286;19;20192;-90
2023/11/03 10:43:46;;;;;;;11.10;2.10;;;14.90;99.90;;;;;;7281267;19;20184;-90
2023/11/03 10:46:20;;;;;;;8.80;1.60;;;14.60;99.90;;;;;;7282903;19;20196;-90
2023/11/03 10:48:51;;;;;;;9.60;1.60;;;15.00;99.90;;;;;;7282582;19;20210;-89
2023/11/03 10:51:45;;;;;;;10.83;1.87;;;15.50;99.90;;;;;;7281588;19;20834;-90
2023/11/03 10:54:30;;;;;;;11.80;1.90;;;16.60;99.90;;;;;;7179409;19;2004793;-90
2023/11/03 10:56:58;;;;;;;11.50;1.70;;;16.30;99.90;;;;;;7281871;19;20687;-90
2023/11/03 10:59:25;;;;;;;15.80;2.00;;;15.90;99.90;;;;;;7281793;19;20213;-90
2023/11/03 11:02:12;;;;;;;13.23;1.60;;;15.30;99.90;;;;;;7283890;19;20188;-90
2023/11/03 11:04:54;;;;;;;13.73;2.03;;;15.10;99.90;;;;;;7262312;19;20206;-89
2023/11/03 11:07:22;;;;;;;13.53;2.00;;;14.70;99.90;;;;;;7283644;19;20215;-89
2023/11/03 11:09:48;;;;;;;13.73;2.50;;;14.20;99.90;;;;;;7283231;19;20184;-90
2023/11/03 11:12:17;;;;;;;9.03;1.87;;;14.20;99.90;;;;;;7282275;19;20192;-89
2023/11/03 11:14:44;;;;;;;11.03;1.90;;;14.20;99.90;;;;;;7283153;19;20222;-89
2023/11/03 11:17:15;;;;;;;14.63;1.97;;;14.30;99.90;;;;;;7283348;19;20187;-89
2023/11/03 11:19:44;;;;;;;14.90;1.87;;;14.30;99.90;;;;;;7281746;19;20214;-89
2023/11/03 11:22:14;;;;;;;14.03;2.43;;;14.20;99.90;;;;;;7283743;19;20187;-89
2023/11/03 11:24:41;;;;;;;12.80;1.87;;;14.20;99.90;;;;;;7280990;19;20189;-89
2023/11/03 11:27:22;;;;;;;11.47;2.07;;;14.20;99.90;;;;;;7283008;19;20206;-89
2023/11/03 11:29:51;;;;;;;11.80;1.83;;;14.20;99.90;;;;;;7281379;19;20711;-89
2023/11/03 11:32:18;;;;;;;14.93;1.80;;;14.20;99.90;;;;;;7279694;19;20195;-89
2023/11/03 11:34:47;;;;;;;12.60;1.87;;;14.40;99.90;;;;;;7283395;19;20540;-89
2023/11/03 11:37:29;;;;;;;9.73;1.60;;;15.30;99.90;;;;;;7281275;19;20200;-89
2023/11/03 11:40:00;;;;;;;8.63;1.70;;;16.00;99.90;;;;;;7280741;19;20211;-90
2023/11/03 11:42:32;;;;;;;10.07;1.87;;;16.60;99.90;;;;;;7283489;19;20716;-89
2023/11/03 11:44:59;;;;;;;9.57;1.80;;;16.70;99.90;;;;;;7279996;19;20191;-90
2023/11/03 11:47:28;;;;;;;10.83;1.80;;;17.20;99.90;;;;;;7283275;19;21183;-90
2023/11/03 11:49:55;;;;;;;8.10;1.47;;;17.20;99.90;;;;;;7287023;19;20204;-90
2023/11/03 11:52:23;;;;;;;8.00;1.80;;;17.80;99.90;;;;;;7290345;19;20203;-90
2023/11/03 11:54:49;;;;;;;8.73;1.90;;;17.80;99.90;;;;;;7294760;19;20188;-89
2023/11/03 11:57:15;;;;;;;8.73;1.73;;;18.00;99.90;;;;;;7291692;19;20195;-89
2023/11/03 11:59:41;;;;;;;11.00;2.53;;;17.90;99.90;;;;;;7291768;19;20209;-90
2023/11/03 12:02:08;;;;;;;10.23;1.90;;;18.10;99.90;;;;;;7292443;19;20188;-90
2023/11/03 12:04:36;;;;;;;8.83;1.70;;;18.60;99.90;;;;;;7312105;19;20183;-89
2023/11/03 12:07:03;;;;;;;12.23;1.63;;;18.40;99.90;;;;;;7288947;19;20196;-89
2023/11/03 12:09:36;;;;;;;8.03;1.67;;;17.70;99.90;;;;;;7287617;19;20655;-89
2023/11/03 12:12:03;;;;;;;10.23;1.63;;;17.70;99.90;;;;;;7288194;19;20213;-88
2023/11/03 12:14:29;;;;;;;11.40;1.80;;;18.10;99.90;;;;;;7288395;19;20632;-90
2023/11/03 12:16:55;;;;;;;8.07;1.73;;;18.50;99.90;;;;;;7288263;19;20197;-90
2023/11/03 12:19:21;;;;;;;11.90;1.90;;;18.30;99.90;;;;;;7288814;19;20672;-90
2023/11/03 12:21:51;;;;;;;11.77;1.70;;;18.30;99.90;;;;;;7288594;19;20200;-91
2023/11/03 12:24:17;;;;;;;9.50;1.63;;;18.50;99.90;;;;;;7288895;19;20260;-91
2023/11/03 12:26:43;;;;;;;9.50;1.90;;;18.90;99.90;;;;;;7288074;19;20669;-89
2023/11/03 12:29:27;;;;;;;8.37;1.47;;;19.10;99.90;;;;;;7287202;19;20188;-89
2023/11/03 12:32:01;;;;;;;11.33;1.90;;;18.80;99.90;;;;;;7286724;19;20224;-89
2023/11/03 12:34:27;;;;;;;10.30;1.60;;;18.50;99.90;;;;;;7288144;19;20554;-90
2023/11/03 12:36:56;;;;;;;13.33;1.90;;;18.20;99.90;;;;;;7288298;19;20193;-90
2023/11/03 12:39:22;;;;;;;10.40;1.73;;;18.10;99.90;;;;;;7286610;19;20795;-89
2023/11/03 12:42:09;;;;;;;10.03;1.93;;;17.70;99.90;;;;;;7286582;19;20245;-89
2023/11/03 12:44:54;;;;;;;11.13;1.73;;;17.50;99.90;;;;;;7287203;19;20189;-89